Time;durP1;ratioP1;P1;durP2;ratioP2;P2;SDS_P1;SDS_P2;PMS_P1;PMS_P2;Temp;Humidity;BMP_temperature;BMP_pressure;BME280_temperature;BME280_humidity;BME280_pressure;Samples;Min_cycle;Max_cycle;Signal;HPM_P1;HPM_P2
2023/05/15 00:00:09;;;;;;;20.17;10.27;;;24.90;99.90;;;;;;5066053;28;20025;-53
2023/05/15 00:02:36;;;;;;;26.52;10.07;;;24.90;99.90;;;;;;5053960;28;20448;-53
2023/05/15 00:05:03;;;;;;;20.00;9.33;;;24.90;99.90;;;;;;5054240;28;20025;-52
2023/05/15 00:07:29;;;;;;;23.25;10.30;;;24.90;99.90;;;;;;5053852;28;20117;-54
2023/05/15 00:09:55;;;;;;;21.67;9.68;;;24.90;99.90;;;;;;5062746;28;20476;-53
2023/05/15 00:12:21;;;;;;;21.30;9.95;;;24.90;99.90;;;;;;5059838;28;20036;-54
2023/05/15 00:14:47;;;;;;;18.80;9.38;;;24.90;99.90;;;;;;5065150;28;20041;-54
2023/05/15 00:17:13;;;;;;;20.00;9.50;;;24.90;99.90;;;;;;5068894;28;20487;-52
2023/05/15 00:19:38;;;;;;;18.17;8.95;;;24.90;99.90;;;;;;5043824;28;20025;-53
2023/05/15 00:22:04;;;;;;;19.02;9.35;;;24.90;99.90;;;;;;5050536;28;20477;-53
2023/05/15 00:24:30;;;;;;;21.02;9.68;;;24.90;99.90;;;;;;5073981;28;20021;-52
2023/05/15 00:26:57;;;;;;;17.00;9.15;;;24.90;99.90;;;;;;5073399;28;20121;-51
2023/05/15 00:29:23;;;;;;;15.13;8.63;;;24.90;99.90;;;;;;5073619;28;20032;-52
2023/05/15 00:31:49;;;;;;;22.08;9.80;;;24.90;99.90;;;;;;5060241;28;20029;-52
2023/05/15 00:34:15;;;;;;;19.17;9.30;;;24.90;99.90;;;;;;5073468;28;20025;-51
2023/05/15 00:36:41;;;;;;;16.33;8.73;;;24.90;99.90;;;;;;5070357;28;20388;-52
2023/05/15 00:39:06;;;;;;;18.90;8.68;;;24.90;99.90;;;;;;5051738;28;20033;-52
2023/05/15 00:41:33;;;;;;;15.70;8.02;;;24.90;99.90;;;;;;5053610;28;20029;-53
2023/05/15 00:44:01;;;;;;;16.40;7.90;;;24.90;99.90;;;;;;5051583;28;20029;-52
2023/05/15 00:46:31;;;;;;;18.10;9.02;;;24.80;99.90;;;;;;5053671;28;20477;-52
2023/05/15 00:48:57;;;;;;;13.82;8.02;;;24.80;99.90;;;;;;5053215;28;20488;-52
2023/05/15 00:51:24;;;;;;;13.45;7.97;;;24.80;99.90;;;;;;5052787;28;20477;-52
2023/05/15 00:53:51;;;;;;;;;;;24.80;99.90;;;;;;5053221;28;20469;-52
2023/05/15 00:56:17;;;;;;;18.27;8.65;;;24.90;99.90;;;;;;5053194;28;19908;-52
2023/05/15 00:58:45;;;;;;;15.48;8.43;;;24.90;99.90;;;;;;5052625;28;20035;-52
2023/05/15 01:01:10;;;;;;;;;;;24.80;99.90;;;;;;5065531;23;20450;-52
2023/05/15 01:03:37;;;;;;;15.88;8.25;;;24.80;99.90;;;;;;5052634;28;19955;-52
2023/05/15 01:06:02;;;;;;;13.40;8.02;;;24.80;99.90;;;;;;5052949;28;20021;-52
2023/05/15 01:08:37;;;;;;;12.57;7.35;;;24.80;99.90;;;;;;5052597;28;20029;-53
2023/05/15 01:11:06;;;;;;;16.48;8.85;;;24.80;99.90;;;;;;5053016;28;20017;-52
2023/05/15 01:13:32;;;;;;;13.48;7.07;;;24.80;99.90;;;;;;5046131;28;20028;-52
2023/05/15 01:15:58;;;;;;;12.52;7.53;;;24.80;99.90;;;;;;5050586;28;20017;-51
2023/05/15 01:18:30;;;;;;;14.75;8.15;;;24.80;99.90;;;;;;5051483;28;20075;-52
2023/05/15 01:21:17;;;;;;;14.00;7.70;;;24.70;99.90;;;;;;5052741;28;20074;-52
2023/05/15 01:24:20;;;;;;;14.60;7.45;;;24.70;99.90;;;;;;5051586;28;20495;-53
2023/05/15 01:26:46;;;;;;;16.35;7.35;;;24.70;99.90;;;;;;5039983;28;20033;-52
2023/05/15 01:29:40;;;;;;;11.75;7.88;;;24.70;99.90;;;;;;5052317;28;20377;-52
2023/05/15 01:32:12;;;;;;;14.95;7.80;;;24.70;99.90;;;;;;5052173;28;20037;-52
2023/05/15 01:35:04;;;;;;;14.50;7.70;;;24.70;99.90;;;;;;5052527;28;20539;-52
2023/05/15 01:37:33;;;;;;;13.35;7.43;;;24.70;99.90;;;;;;5046713;28;20475;-53
2023/05/15 01:40:02;;;;;;;14.85;7.82;;;24.70;99.90;;;;;;5052289;28;20196;-52
2023/05/15 01:42:33;;;;;;;13.85;6.85;;;24.70;99.90;;;;;;5052389;28;20127;-53
2023/05/15 01:45:03;;;;;;;11.50;6.60;;;24.70;99.90;;;;;;5039296;28;20017;-53
2023/05/15 01:47:48;;;;;;;13.48;8.00;;;24.70;99.90;;;;;;5051006;28;20067;-53
2023/05/15 01:50:16;;;;;;;11.10;6.63;;;24.70;99.90;;;;;;5050252;28;20428;-52
2023/05/15 01:52:51;;;;;;;12.00;7.28;;;24.70;99.90;;;;;;5051091;28;20041;-52
2023/05/15 01:55:19;;;;;;;10.98;7.25;;;24.70;99.90;;;;;;5051959;28;20035;-53
2023/05/15 01:57:47;;;;;;;12.27;7.00;;;24.70;99.90;;;;;;5051367;28;20028;-52
2023/05/15 02:02:52;;;;;;;10.90;6.75;;;24.60;99.90;;;;;;5070247;28;20051;-52
2023/05/15 02:05:18;;;;;;;10.18;6.40;;;24.70;99.90;;;;;;5071978;28;20033;-52
2023/05/15 02:07:45;;;;;;;14.77;7.73;;;24.60;99.90;;;;;;5072158;28;20040;-52
2023/05/15 02:10:16;;;;;;;11.85;6.90;;;24.60;99.90;;;;;;5087501;28;20048;-52
2023/05/15 02:12:42;;;;;;;11.40;7.47;;;24.70;99.90;;;;;;5072203;28;20112;-52
2023/05/15 02:15:10;;;;;;;13.88;6.38;;;24.60;99.90;;;;;;5071793;28;20096;-53
2023/05/15 02:17:36;;;;;;;11.23;6.78;;;24.60;99.90;;;;;;5071846;28;20399;-52
2023/05/15 02:20:04;;;;;;;12.00;6.88;;;24.60;99.90;;;;;;5071512;28;20081;-52
2023/05/15 02:22:30;;;;;;;11.50;6.57;;;24.60;99.90;;;;;;5054232;28;20081;-52
2023/05/15 02:24:56;;;;;;;10.80;6.30;;;24.60;99.90;;;;;;5071430;28;20017;-52
2023/05/15 02:27:28;;;;;;;9.70;6.45;;;24.60;99.90;;;;;;5071547;28;20040;-52
2023/05/15 02:30:25;;;;;;;10.98;6.93;;;24.60;99.90;;;;;;5071623;28;20017;-52
2023/05/15 02:33:09;;;;;;;10.18;6.60;;;24.60;99.90;;;;;;5087253;28;20039;-52
2023/05/15 02:35:53;;;;;;;9.40;6.32;;;24.60;99.90;;;;;;5071649;28;20099;-53
2023/05/15 02:38:25;;;;;;;10.20;6.22;;;24.60;99.90;;;;;;5071790;28;20101;-52
2023/05/15 02:40:54;;;;;;;11.70;6.57;;;24.60;99.90;;;;;;5071474;28;20055;-52
2023/05/15 02:43:20;;;;;;;12.50;6.53;;;24.60;99.90;;;;;;5072669;28;20040;-51
2023/05/15 02:45:47;;;;;;;9.93;6.05;;;24.50;99.90;;;;;;5075340;28;20502;-52
2023/05/15 02:48:15;;;;;;;9.93;5.68;;;24.60;99.90;;;;;;5075795;28;20051;-52
2023/05/15 02:50:42;;;;;;;9.57;6.18;;;24.60;99.90;;;;;;5075517;28;20484;-53
2023/05/15 02:53:09;;;;;;;9.30;6.13;;;24.60;99.90;;;;;;5075567;28;20035;-53
2023/05/15 02:55:36;;;;;;;9.27;6.45;;;24.60;99.90;;;;;;5075403;28;20028;-52
2023/05/15 02:58:03;;;;;;;9.63;6.07;;;24.50;99.90;;;;;;5075527;28;20025;-52
2023/05/15 03:00:29;;;;;;;10.43;6.63;;;24.50;99.90;;;;;;5089368;22;20028;-52
2023/05/15 03:02:55;;;;;;;8.63;6.05;;;24.50;99.90;;;;;;5094794;28;20043;-53
2023/05/15 03:05:20;;;;;;;8.13;5.90;;;24.60;99.90;;;;;;5077342;28;20051;-53
2023/05/15 03:07:46;;;;;;;9.90;6.03;;;24.50;99.90;;;;;;5095389;28;20028;-52
2023/05/15 03:10:12;;;;;;;7.95;5.90;;;24.50;99.90;;;;;;5095381;28;20026;-51
2023/05/15 03:12:38;;;;;;;12.40;6.53;;;24.50;99.90;;;;;;5095403;28;20107;-53
2023/05/15 03:15:05;;;;;;;12.10;5.97;;;24.50;99.90;;;;;;5095098;28;20024;-52
2023/05/15 03:17:31;;;;;;;9.52;5.65;;;24.50;99.90;;;;;;5095148;28;20401;-51
2023/05/15 03:19:57;;;;;;;10.25;5.57;;;24.50;99.90;;;;;;5095248;28;20024;-51
2023/05/15 03:22:23;;;;;;;10.38;5.32;;;24.50;99.90;;;;;;5093884;28;20356;-51
2023/05/15 03:24:48;;;;;;;8.55;5.75;;;24.50;99.90;;;;;;5095049;28;20031;-53
2023/05/15 03:27:14;;;;;;;9.00;5.72;;;24.50;99.90;;;;;;5095284;28;20036;-51
2023/05/15 03:29:41;;;;;;;10.95;4.97;;;24.50;99.90;;;;;;5095139;28;20383;-51
2023/05/15 03:32:07;;;;;;;9.52;5.47;;;24.50;99.90;;;;;;5095006;28;20645;-51
2023/05/15 03:34:32;;;;;;;9.43;5.95;;;24.50;99.90;;;;;;5095198;28;20146;-51
2023/05/15 03:36:58;;;;;;;8.63;5.28;;;24.50;99.90;;;;;;5094743;28;20065;-53
2023/05/15 03:39:24;;;;;;;8.32;5.30;;;24.50;99.90;;;;;;5094813;28;20487;-52
2023/05/15 03:41:50;;;;;;;8.55;5.13;;;24.50;99.90;;;;;;5094731;28;20035;-52
2023/05/15 03:44:15;;;;;;;9.55;5.13;;;24.50;99.90;;;;;;5094932;28;20031;-52
2023/05/15 03:46:41;;;;;;;8.05;4.97;;;24.50;99.90;;;;;;5094603;28;20036;-53
2023/05/15 03:49:07;;;;;;;8.73;5.03;;;24.50;99.90;;;;;;5094660;28;20042;-53
2023/05/15 03:51:33;;;;;;;8.65;5.35;;;24.50;99.90;;;;;;5094411;28;20027;-52
2023/05/15 03:53:59;;;;;;;9.00;5.30;;;24.50;99.90;;;;;;5076568;28;20463;-52
2023/05/15 03:56:25;;;;;;;6.65;4.68;;;24.50;99.90;;;;;;5094105;28;20027;-52
2023/05/15 03:58:51;;;;;;;8.70;5.15;;;24.50;99.90;;;;;;5094493;28;20016;-52
2023/05/15 04:01:17;;;;;;;8.25;5.28;;;24.50;99.90;;;;;;5095021;28;20036;-52
2023/05/15 04:03:42;;;;;;;8.43;5.38;;;24.40;99.90;;;;;;5094371;28;20149;-52
2023/05/15 04:06:08;;;;;;;6.22;4.72;;;24.50;99.90;;;;;;5094346;28;20031;-54
2023/05/15 04:08:34;;;;;;;7.75;5.35;;;24.40;99.90;;;;;;5094331;28;20035;-52
2023/05/15 04:11:00;;;;;;;6.90;4.93;;;24.50;99.90;;;;;;5094424;28;20020;-52
2023/05/15 04:13:26;;;;;;;8.18;6.13;;;24.40;99.90;;;;;;5094159;28;20020;-53
2023/05/15 04:15:52;;;;;;;8.60;5.80;;;24.40;99.90;;;;;;5094209;28;20074;-52
2023/05/15 04:18:18;;;;;;;9.60;5.93;;;24.40;99.90;;;;;;5094290;28;20023;-53
2023/05/15 04:20:44;;;;;;;8.65;5.97;;;24.50;99.90;;;;;;5094110;28;20028;-52
2023/05/15 04:23:10;;;;;;;8.52;5.68;;;24.40;99.90;;;;;;5094035;28;20020;-52
2023/05/15 04:25:36;;;;;;;9.02;5.82;;;24.40;99.90;;;;;;5093914;28;20028;-52
2023/05/15 04:28:02;;;;;;;8.10;6.00;;;24.40;99.90;;;;;;5093788;28;20071;-54
2023/05/15 04:30:28;;;;;;;7.47;5.30;;;24.40;99.90;;;;;;5093806;28;20048;-52
2023/05/15 04:32:54;;;;;;;8.57;6.40;;;24.40;99.90;;;;;;5093829;28;20081;-53
2023/05/15 04:35:20;;;;;;;6.80;5.45;;;24.40;99.90;;;;;;5094012;28;20032;-52
2023/05/15 04:37:45;;;;;;;8.10;5.97;;;24.40;99.90;;;;;;5075835;28;20024;-52
2023/05/15 04:40:13;;;;;;;8.55;5.53;;;24.40;99.90;;;;;;5093512;28;20043;-52
2023/05/15 04:42:39;;;;;;;;;;;24.40;99.90;;;;;;5094220;28;20039;-52
2023/05/15 04:45:06;;;;;;;8.93;5.97;;;24.40;99.90;;;;;;5093696;28;20355;-53
2023/05/15 04:47:31;;;;;;;8.00;5.82;;;24.40;99.90;;;;;;5093540;28;20036;-52
2023/05/15 04:49:57;;;;;;;8.25;6.35;;;24.40;99.90;;;;;;5093254;28;20027;-53
2023/05/15 04:52:23;;;;;;;10.88;5.95;;;24.40;99.90;;;;;;5093466;28;20028;-53
2023/05/15 04:54:50;;;;;;;7.55;5.90;;;24.50;99.90;;;;;;5093690;28;20024;-53
2023/05/15 04:57:16;;;;;;;7.15;5.43;;;24.40;99.90;;;;;;5093364;28;20016;-53
2023/05/15 04:59:41;;;;;;;7.00;5.68;;;24.40;99.90;;;;;;5093474;28;20047;-53
2023/05/15 05:02:09;;;;;;;8.00;5.90;;;24.40;99.90;;;;;;5092911;28;20124;-53
2023/05/15 05:04:35;;;;;;;7.88;5.82;;;24.40;99.90;;;;;;5093395;28;20024;-53
2023/05/15 05:07:04;;;;;;;10.75;6.47;;;24.40;99.90;;;;;;5092534;28;20036;-52
2023/05/15 05:09:30;;;;;;;9.02;6.35;;;24.40;99.90;;;;;;5093239;28;20024;-53
2023/05/15 05:11:59;;;;;;;7.22;5.43;;;24.40;99.90;;;;;;5093041;28;20016;-53
2023/05/15 05:14:25;;;;;;;8.38;5.05;;;24.40;99.90;;;;;;5074763;28;20024;-52
2023/05/15 05:16:51;;;;;;;9.95;6.57;;;24.40;99.90;;;;;;5093226;28;20058;-52
2023/05/15 05:19:17;;;;;;;9.57;6.15;;;24.40;99.90;;;;;;5092933;28;20422;-52
2023/05/15 05:21:43;;;;;;;8.30;5.40;;;24.40;99.90;;;;;;5092791;28;20012;-52
2023/05/15 05:24:08;;;;;;;8.88;5.68;;;24.40;99.90;;;;;;5088280;28;20433;-52
2023/05/15 05:26:34;;;;;;;7.32;5.05;;;24.40;99.90;;;;;;5089470;28;20372;-52
2023/05/15 05:29:00;;;;;;;6.97;4.95;;;24.40;99.90;;;;;;5092777;28;20020;-52
2023/05/15 05:31:26;;;;;;;6.45;4.70;;;24.40;99.90;;;;;;5091316;28;20036;-52
2023/05/15 05:33:52;;;;;;;6.57;4.40;;;24.40;99.90;;;;;;5092781;28;20045;-52
2023/05/15 05:36:17;;;;;;;9.38;5.63;;;24.30;99.90;;;;;;5092503;28;20091;-52
2023/05/15 05:38:43;;;;;;;7.35;4.70;;;24.40;99.90;;;;;;5092541;28;20023;-52
2023/05/15 05:41:09;;;;;;;6.20;4.55;;;24.40;99.90;;;;;;5074344;28;20081;-52
2023/05/15 05:43:35;;;;;;;6.72;5.10;;;24.40;99.90;;;;;;5092533;28;20016;-52
2023/05/15 05:46:01;;;;;;;8.45;5.60;;;24.40;99.90;;;;;;5092454;28;20405;-52
2023/05/15 05:48:27;;;;;;;7.18;4.78;;;24.40;99.90;;;;;;5074096;28;20031;-52
2023/05/15 05:50:53;;;;;;;6.35;4.43;;;24.40;99.90;;;;;;5092511;28;20020;-52
2023/05/15 05:53:19;;;;;;;7.25;4.63;;;24.40;99.90;;;;;;5092145;28;20095;-52
2023/05/15 05:55:45;;;;;;;6.72;4.15;;;24.40;99.90;;;;;;5092400;28;20107;-53
2023/05/15 05:58:10;;;;;;;6.63;4.57;;;24.40;99.90;;;;;;5092302;28;20094;-53
2023/05/15 06:00:36;;;;;;;6.80;4.50;;;24.40;99.90;;;;;;5091928;28;20138;-52
2023/05/15 06:03:02;;;;;;;7.57;4.65;;;24.40;99.90;;;;;;5092239;28;20032;-53
2023/05/15 06:05:28;;;;;;;6.38;4.15;;;24.40;99.90;;;;;;5092132;28;20020;-53
2023/05/15 06:07:54;;;;;;;5.07;4.38;;;24.40;99.90;;;;;;5092373;28;20360;-53
2023/05/15 06:10:20;;;;;;;6.20;4.38;;;24.40;99.90;;;;;;5092030;28;20432;-53
2023/05/15 06:12:47;;;;;;;6.72;4.38;;;24.40;99.90;;;;;;5092199;28;20089;-54
2023/05/15 06:15:14;;;;;;;8.73;4.73;;;24.40;99.90;;;;;;5092065;28;20080;-53
2023/05/15 06:17:40;;;;;;;6.28;4.10;;;24.40;99.90;;;;;;5091833;28;20268;-52
2023/05/15 06:20:07;;;;;;;6.47;4.35;;;24.40;99.90;;;;;;5073681;28;20039;-52
2023/05/15 06:22:34;;;;;;;6.82;3.90;;;24.40;99.90;;;;;;5091996;28;20443;-52
2023/05/15 06:25:05;;;;;;;6.00;4.25;;;24.40;99.90;;;;;;5091966;28;20066;-52
2023/05/15 06:27:32;;;;;;;6.22;3.80;;;24.40;99.90;;;;;;5073780;28;20047;-54
2023/05/15 06:29:58;;;;;;;9.15;4.30;;;24.40;99.90;;;;;;5091980;28;20017;-53
2023/05/15 06:32:24;;;;;;;8.73;4.53;;;24.40;99.90;;;;;;5092075;28;20379;-52
2023/05/15 06:34:50;;;;;;;6.53;4.25;;;24.40;99.90;;;;;;5091709;28;20091;-52
2023/05/15 06:37:15;;;;;;;6.93;4.38;;;24.40;99.90;;;;;;5091885;28;20024;-53
2023/05/15 06:39:41;;;;;;;6.82;3.75;;;24.40;99.90;;;;;;5091989;28;20377;-55
2023/05/15 06:42:07;;;;;;;7.25;4.70;;;24.40;99.90;;;;;;5091764;28;20440;-55
2023/05/15 06:44:33;;;;;;;5.85;4.15;;;24.40;99.90;;;;;;5091840;28;20107;-55
2023/05/15 06:46:58;;;;;;;6.68;4.43;;;24.40;99.90;;;;;;5090578;28;20380;-54
2023/05/15 06:49:24;;;;;;;7.90;4.70;;;24.40;99.90;;;;;;5091869;28;20020;-53
2023/05/15 06:51:51;;;;;;;7.70;4.38;;;24.40;99.90;;;;;;5073736;28;20028;-54
2023/05/15 06:54:17;;;;;;;7.72;4.80;;;24.40;99.90;;;;;;5073512;28;20032;-52
2023/05/15 06:56:43;;;;;;;7.70;4.97;;;24.40;99.90;;;;;;5091678;28;20093;-53
2023/05/15 06:59:09;;;;;;;5.97;4.18;;;24.40;99.90;;;;;;5091442;28;20476;-53
2023/05/15 07:01:35;;;;;;;6.28;4.22;;;24.40;99.90;;;;;;5091231;28;20055;-53
2023/05/15 07:04:01;;;;;;;6.35;4.18;;;24.40;99.90;;;;;;5091805;28;20451;-55
2023/05/15 07:06:28;;;;;;;6.95;4.55;;;24.40;99.90;;;;;;5091559;28;20031;-53
2023/05/15 07:08:53;;;;;;;8.10;4.35;;;24.40;99.90;;;;;;5091733;28;20496;-53
2023/05/15 07:11:19;;;;;;;6.00;4.00;;;24.50;99.90;;;;;;5091494;28;20059;-53
2023/05/15 07:13:45;;;;;;;7.45;4.30;;;24.50;99.90;;;;;;5073308;28;20387;-53
2023/05/15 07:16:11;;;;;;;5.70;4.53;;;24.40;99.90;;;;;;5091334;28;20153;-52
2023/05/15 07:18:36;;;;;;;7.35;4.70;;;24.50;99.90;;;;;;5091566;28;20173;-54
2023/05/15 07:21:02;;;;;;;6.15;3.40;;;24.50;99.90;;;;;;5091387;28;20087;-52
2023/05/15 07:23:28;;;;;;;7.15;4.43;;;24.50;99.90;;;;;;5073494;28;20047;-54
2023/05/15 07:25:54;;;;;;;6.85;4.70;;;24.50;99.90;;;;;;5091149;28;20476;-52
2023/05/15 07:28:20;;;;;;;7.28;4.63;;;24.50;99.90;;;;;;5091485;28;20032;-53
2023/05/15 07:30:46;;;;;;;9.20;4.30;;;24.50;99.90;;;;;;5092720;28;20099;-54
2023/05/15 07:33:12;;;;;;;7.45;4.13;;;24.50;99.90;;;;;;5094445;28;20066;-54
2023/05/15 07:35:37;;;;;;;5.07;3.58;;;24.50;99.90;;;;;;5094864;28;20024;-53
2023/05/15 07:38:03;;;;;;;7.28;3.58;;;24.50;99.90;;;;;;5094845;28;20492;-54
2023/05/15 07:40:30;;;;;;;5.88;3.70;;;24.50;99.90;;;;;;5095002;28;20040;-53
2023/05/15 07:42:55;;;;;;;5.65;3.83;;;24.50;99.90;;;;;;5094798;28;20020;-53
2023/05/15 07:45:21;;;;;;;4.60;3.05;;;24.50;99.90;;;;;;5094897;28;20117;-55
2023/05/15 07:47:48;;;;;;;5.35;3.53;;;24.50;99.90;;;;;;5094608;28;20036;-55
2023/05/15 07:50:14;;;;;;;4.47;2.97;;;24.50;99.90;;;;;;5094354;28;20101;-54
2023/05/15 07:52:41;;;;;;;4.00;2.58;;;24.50;99.90;;;;;;5094287;28;20016;-56
2023/05/15 07:55:07;;;;;;;4.28;2.45;;;24.50;99.90;;;;;;5094590;28;20028;-55
2023/05/15 07:57:33;;;;;;;4.75;3.15;;;24.50;99.90;;;;;;5094560;28;20031;-55
2023/05/15 08:00:01;;;;;;;7.80;2.42;;;24.50;99.90;;;;;;5094687;28;20028;-54
2023/05/15 08:02:27;;;;;;;4.05;2.90;;;24.50;99.90;;;;;;5094165;28;20126;-55
2023/05/15 08:04:52;;;;;;;8.05;2.40;;;24.50;99.90;;;;;;5094492;28;20107;-54
2023/05/15 08:07:18;;;;;;;4.97;2.53;;;24.50;99.90;;;;;;5093979;28;20399;-54
2023/05/15 08:09:45;;;;;;;4.50;2.42;;;24.50;99.90;;;;;;5094317;28;20353;-55
2023/05/15 08:12:19;;;;;;;5.80;3.03;;;24.50;99.90;;;;;;5093780;28;20039;-53
2023/05/15 08:14:55;;;;;;;4.65;2.78;;;24.50;99.90;;;;;;5091932;28;20523;-54
2023/05/15 08:17:22;;;;;;;5.68;2.47;;;24.50;99.90;;;;;;5079312;28;20086;-53
2023/05/15 08:19:48;;;;;;;3.72;2.10;;;24.50;99.90;;;;;;5089317;28;20031;-53
2023/05/15 08:22:14;;;;;;;4.30;2.53;;;24.60;99.90;;;;;;5075732;28;20120;-53
2023/05/15 08:24:40;;;;;;;5.45;2.25;;;24.60;99.90;;;;;;5093560;28;20024;-53
2023/05/15 08:27:08;;;;;;;5.20;2.40;;;24.60;99.90;;;;;;5093772;28;20487;-52
2023/05/15 08:29:35;;;;;;;3.45;2.30;;;24.60;99.90;;;;;;5093621;28;20055;-53
2023/05/15 08:32:01;;;;;;;5.10;2.90;;;24.60;99.90;;;;;;5093723;28;20024;-53
2023/05/15 08:34:27;;;;;;;3.70;2.42;;;24.60;99.90;;;;;;5093604;28;20119;-53
2023/05/15 08:36:53;;;;;;;3.05;2.38;;;24.60;99.90;;;;;;5093743;28;20035;-53
2023/05/15 08:39:18;;;;;;;6.65;3.00;;;24.60;99.90;;;;;;5093445;28;21030;-53
2023/05/15 08:42:04;;;;;;;4.95;2.42;;;24.60;99.90;;;;;;5093587;28;20051;-53
2023/05/15 08:44:30;;;;;;;2.88;2.10;;;24.60;99.90;;;;;;5075262;28;20027;-54
2023/05/15 08:46:58;;;;;;;5.47;2.38;;;24.60;99.90;;;;;;5093620;28;20032;-54
2023/05/15 08:49:23;;;;;;;;;;;24.60;99.90;;;;;;5093878;28;20028;-54
2023/05/15 08:51:49;;;;;;;3.42;2.30;;;24.60;99.90;;;;;;5093353;28;19915;-55
2023/05/15 08:54:15;;;;;;;4.97;2.47;;;24.70;99.90;;;;;;5075429;28;20121;-54
2023/05/15 08:56:42;;;;;;;4.20;2.17;;;24.70;99.90;;;;;;5093466;28;20020;-53
2023/05/15 08:59:07;;;;;;;5.38;2.13;;;24.60;99.90;;;;;;5093537;28;20111;-54
2023/05/15 09:01:34;;;;;;;5.45;2.33;;;24.60;99.90;;;;;;5093341;28;20195;-54
2023/05/15 09:04:00;;;;;;;4.72;2.50;;;24.60;99.90;;;;;;5093270;28;20027;-54
2023/05/15 09:06:27;;;;;;;4.82;2.55;;;24.70;99.90;;;;;;5092975;28;20028;-53
2023/05/15 09:08:55;;;;;;;4.15;2.03;;;24.70;99.90;;;;;;5091916;28;20047;-55
2023/05/15 09:11:23;;;;;;;3.08;1.70;;;24.70;99.90;;;;;;5093098;28;20028;-53
2023/05/15 09:13:49;;;;;;;6.78;2.63;;;24.70;99.90;;;;;;5074734;28;20027;-53
2023/05/15 09:16:15;;;;;;;3.05;2.05;;;24.70;99.90;;;;;;5093176;28;20070;-55
2023/05/15 09:18:42;;;;;;;4.70;2.20;;;24.70;99.90;;;;;;5092778;28;20044;-55
2023/05/15 09:21:24;;;;;;;3.95;2.10;;;24.70;99.90;;;;;;5093070;28;20016;-55
2023/05/15 09:23:50;;;;;;;7.18;2.90;;;24.70;99.90;;;;;;5074669;28;20024;-55
2023/05/15 09:26:16;;;;;;;3.15;1.83;;;24.70;99.90;;;;;;5074721;28;20024;-53
2023/05/15 09:28:42;;;;;;;2.45;1.90;;;24.70;99.90;;;;;;5092698;28;20024;-55
2023/05/15 09:31:08;;;;;;;2.85;1.95;;;24.70;99.90;;;;;;5093092;28;20055;-55
2023/05/15 09:33:36;;;;;;;3.03;2.05;;;24.70;99.90;;;;;;5092511;28;20031;-55
2023/05/15 09:36:04;;;;;;;2.97;2.10;;;24.70;99.90;;;;;;5092507;28;20020;-56
2023/05/15 09:38:31;;;;;;;;;;;24.70;99.90;;;;;;5092848;28;20095;-56
2023/05/15 09:41:01;;;;;;;3.00;2.00;;;24.70;99.90;;;;;;5092429;28;19907;-57
2023/05/15 09:43:28;;;;;;;6.35;2.28;;;24.70;99.90;;;;;;5092273;28;20019;-56
2023/05/15 09:45:54;;;;;;;5.40;2.47;;;24.70;99.90;;;;;;5074210;28;20111;-56
2023/05/15 09:48:20;;;;;;;4.97;2.22;;;24.70;99.90;;;;;;5092031;28;20539;-58
2023/05/15 09:50:47;;;;;;;5.75;2.55;;;24.70;99.90;;;;;;5092348;28;20115;-56
2023/05/15 09:53:13;;;;;;;3.90;2.43;;;24.80;99.90;;;;;;5091957;28;20050;-57
2023/05/15 09:55:42;;;;;;;7.60;2.70;;;24.80;99.90;;;;;;5092469;28;20534;-54
2023/05/15 09:58:11;;;;;;;4.03;2.38;;;24.80;99.90;;;;;;5092507;28;20028;-55
2023/05/15 10:00:39;;;;;;;5.20;2.38;;;24.80;99.90;;;;;;5091884;28;20066;-56
2023/05/15 10:03:06;;;;;;;5.82;2.53;;;24.80;99.90;;;;;;5091450;28;20040;-56
2023/05/15 10:05:32;;;;;;;4.97;2.40;;;24.80;99.90;;;;;;5092216;28;20024;-56
2023/05/15 10:07:58;;;;;;;7.00;2.20;;;24.80;99.90;;;;;;5073974;28;20285;-57
2023/05/15 10:15:36;;;;;;;4.82;2.25;;;24.80;99.90;;;;;;5882903;22;20073;-54
2023/05/15 10:18:03;;;;;;;7.10;2.37;;;24.90;99.90;;;;;;5052508;28;20550;-54
2023/05/15 10:20:30;;;;;;;6.63;2.72;;;24.90;99.90;;;;;;5051593;28;20388;-54
2023/05/15 10:22:58;;;;;;;7.47;3.38;;;24.90;99.90;;;;;;5034922;28;20141;-55
2023/05/15 10:25:41;;;;;;;7.45;2.90;;;24.90;99.90;;;;;;5035050;28;20079;-54
2023/05/15 10:28:09;;;;;;;9.65;2.92;;;24.90;99.90;;;;;;5052624;28;20040;-54
2023/05/15 10:30:36;;;;;;;3.75;2.60;;;24.90;99.90;;;;;;5032671;28;20072;-54
2023/05/15 10:33:04;;;;;;;5.47;2.28;;;24.90;99.90;;;;;;5052755;28;20017;-54
2023/05/15 10:35:30;;;;;;;5.85;3.28;;;25.00;99.90;;;;;;5052360;28;20508;-54
2023/05/15 10:37:56;;;;;;;3.88;2.30;;;25.00;99.90;;;;;;5042313;28;20071;-54
2023/05/15 10:40:23;;;;;;;5.97;2.65;;;25.00;99.90;;;;;;5049886;28;20024;-54
2023/05/15 10:42:49;;;;;;;6.20;2.90;;;25.00;99.90;;;;;;5052690;28;20147;-54
2023/05/15 10:45:15;;;;;;;4.65;2.17;;;25.00;99.90;;;;;;5052346;28;20057;-54
2023/05/15 10:47:42;;;;;;;3.28;1.48;;;25.00;99.90;;;;;;5052297;28;20388;-54
2023/05/15 10:50:10;;;;;;;2.33;1.30;;;25.00;99.90;;;;;;5052456;28;20548;-54
2023/05/15 10:52:37;;;;;;;2.90;1.40;;;25.00;99.90;;;;;;5034388;28;20495;-55
2023/05/15 10:55:07;;;;;;;1.00;0.73;;;25.00;99.90;;;;;;5052481;28;20086;-53
2023/05/15 10:57:34;;;;;;;3.15;0.80;;;25.00;99.90;;;;;;5034550;28;20029;-54
2023/05/15 11:00:00;;;;;;;5.07;1.10;;;25.10;99.90;;;;;;5052535;28;20025;-54
2023/05/15 11:02:29;;;;;;;2.03;1.30;;;25.10;99.90;;;;;;5052284;28;20020;-54
2023/05/15 11:05:00;;;;;;;3.03;1.00;;;25.10;99.90;;;;;;5052657;28;20025;-54
2023/05/15 11:07:27;;;;;;;1.80;0.88;;;25.10;99.90;;;;;;5042214;28;20554;-56
2023/05/15 11:09:54;;;;;;;4.28;1.20;;;25.10;99.90;;;;;;5054068;28;20219;-56
2023/05/15 11:12:20;;;;;;;1.55;1.23;;;25.20;99.90;;;;;;5056153;28;20374;-56
2023/05/15 11:14:55;;;;;;;4.38;1.92;;;25.20;99.90;;;;;;5055957;28;20373;-54
2023/05/15 11:17:23;;;;;;;4.07;2.75;;;25.20;99.90;;;;;;5055222;28;20093;-55
2023/05/15 11:19:49;;;;;;;4.10;2.78;;;25.20;99.90;;;;;;5056191;28;20461;-56
2023/05/15 11:22:25;;;;;;;3.15;2.35;;;25.30;99.90;;;;;;5056054;28;20032;-56
2023/05/15 11:25:03;;;;;;;5.43;3.40;;;25.30;99.90;;;;;;5053244;28;20534;-56
2023/05/15 11:27:30;;;;;;;9.25;2.97;;;25.40;99.90;;;;;;5055504;28;20040;-56
2023/05/15 11:30:12;;;;;;;6.07;2.63;;;25.40;99.90;;;;;;5055623;28;20024;-56
2023/05/15 11:32:51;;;;;;;5.53;2.22;;;25.40;99.90;;;;;;5050190;28;20025;-58
2023/05/15 11:35:26;;;;;;;5.78;1.95;;;25.50;99.90;;;;;;5053216;28;20025;-58
2023/05/15 11:37:55;;;;;;;4.32;1.63;;;25.50;99.90;;;;;;5064061;28;20539;-60
2023/05/15 11:40:28;;;;;;;8.52;1.55;;;25.50;99.90;;;;;;5033875;28;20148;-60
2023/05/15 11:43:19;;;;;;;2.78;1.23;;;25.60;99.90;;;;;;5058075;28;20021;-60
2023/05/15 11:45:47;;;;;;;5.85;1.45;;;25.60;99.90;;;;;;5054984;28;20112;-58
2023/05/15 11:48:15;;;;;;;6.05;1.75;;;25.60;99.90;;;;;;5052720;28;20132;-58
2023/05/15 11:50:44;;;;;;;5.10;1.50;;;25.70;99.90;;;;;;5064120;28;20024;-57
2023/05/15 11:53:10;;;;;;;5.97;2.70;;;25.70;99.90;;;;;;5054905;28;20025;-58
2023/05/15 11:55:37;;;;;;;5.20;2.30;;;25.80;99.90;;;;;;5065306;28;20024;-59
2023/05/15 11:58:04;;;;;;;6.75;1.70;;;25.70;99.90;;;;;;5036752;28;20025;-58
2023/05/15 12:00:30;;;;;;;8.68;3.85;;;25.80;99.90;;;;;;5054363;28;20060;-59
2023/05/15 12:02:56;;;;;;;11.68;3.53;;;25.80;99.90;;;;;;5035597;28;20512;-59
2023/05/15 12:05:22;;;;;;;8.50;4.22;;;25.80;99.90;;;;;;5054233;28;20100;-59
2023/05/15 12:07:48;;;;;;;7.20;4.70;;;25.80;99.90;;;;;;5040348;28;20036;-62
2023/05/15 12:10:15;;;;;;;10.48;5.25;;;25.90;99.90;;;;;;5061244;28;20115;-63
2023/05/15 12:12:47;;;;;;;8.27;4.10;;;25.90;99.90;;;;;;5054281;28;20480;-58
2023/05/15 12:15:15;;;;;;;4.45;2.10;;;25.90;99.90;;;;;;5053606;28;20108;-59
2023/05/15 12:17:43;;;;;;;8.05;4.88;;;25.90;99.90;;;;;;5052847;28;20037;-59
2023/05/15 12:20:17;;;;;;;9.38;4.90;;;25.90;99.90;;;;;;5051505;28;20021;-60
2023/05/15 12:22:43;;;;;;;13.70;7.13;;;26.00;99.90;;;;;;5054083;28;20496;-58
2023/05/15 12:25:11;;;;;;;14.20;4.68;;;26.00;99.90;;;;;;5053180;28;20086;-60
2023/05/15 12:27:38;;;;;;;5.38;3.08;;;26.00;99.90;;;;;;5053874;28;20041;-60
2023/05/15 12:30:06;;;;;;;5.10;3.05;;;26.00;99.90;;;;;;5053958;28;20104;-58
2023/05/15 12:32:34;;;;;;;3.03;1.80;;;26.00;99.90;;;;;;5035587;28;20155;-57
2023/05/15 12:35:00;;;;;;;5.05;2.13;;;26.00;99.90;;;;;;5053174;28;20037;-57
2023/05/15 12:37:27;;;;;;;6.18;2.67;;;26.10;99.90;;;;;;5058978;28;20028;-57
2023/05/15 12:40:10;;;;;;;7.97;2.10;;;26.10;99.90;;;;;;5058997;28;20032;-59
2023/05/15 12:42:44;;;;;;;7.60;2.63;;;26.10;99.90;;;;;;5054264;28;20022;-58
2023/05/15 12:45:18;;;;;;;6.88;1.80;;;26.10;99.90;;;;;;5033630;28;20424;-58
2023/05/15 12:47:45;;;;;;;5.40;2.30;;;26.10;99.90;;;;;;5039420;28;20099;-58
2023/05/15 12:50:21;;;;;;;3.47;1.85;;;26.10;99.90;;;;;;5031832;28;20547;-58
2023/05/15 12:52:55;;;;;;;4.30;1.90;;;26.20;99.90;;;;;;5049014;28;20021;-58
2023/05/15 12:55:24;;;;;;;5.85;1.75;;;26.20;99.90;;;;;;5050389;28;20031;-58